ACO7577 SKBO-SKSP
Flight info
| Callsign | ACO7577 |
|---|---|
| Flight time | 2h 0m |
| Altitude | 36000 |
| Route | TOBKI4R VASIL UL423 PULOX DCT ARORO UN653 TOSAV TOSAV2A |
| Aircraft | A320/M-SDE3FGHIRWY/LB1 |
Departure
| Time | 2026-05-03 23:30 |
|---|---|
| Airport | El Dorado International Airport (SKBO) |
Arrival
| Time | 2026-05-04 01:30 |
|---|---|
| Airport | Gustavo Rojas Pinilla International Airport (SKSP) |
| Time | Latitude | Longitude | Altitude | Speed | Heading |
|---|---|---|---|---|---|
| 2026-05-03 22:52 | 4.69404 | -74.13330 | 8373 ft | 0 kts | 126° |
| 2026-05-03 23:13 | 4.69404 | -74.13331 | 8373 ft | 1 kts | 126° |
| 2026-05-03 23:14 | 4.69419 | -74.13350 | 8373 ft | 4 kts | 124° |
| 2026-05-03 23:14 | 4.69429 | -74.13369 | 8373 ft | 4 kts | 63° |
| 2026-05-03 23:14 | 4.69413 | -74.13383 | 8373 ft | 4 kts | 36° |
| 2026-05-03 23:14 | 4.69401 | -74.13392 | 8373 ft | 0 kts | 37° |
| 2026-05-03 23:19 | 4.69419 | -74.13378 | 8373 ft | 6 kts | 37° |
| 2026-05-03 23:19 | 4.69467 | -74.13342 | 8373 ft | 11 kts | 37° |
| 2026-05-03 23:19 | 4.69538 | -74.13294 | 8373 ft | 13 kts | 23° |
| 2026-05-03 23:20 | 4.69627 | -74.13292 | 8373 ft | 10 kts | 349° |
| 2026-05-03 23:20 | 4.69685 | -74.13348 | 8373 ft | 14 kts | 306° |
| 2026-05-03 23:20 | 4.69752 | -74.13437 | 8373 ft | 18 kts | 307° |
| 2026-05-03 23:20 | 4.69834 | -74.13545 | 8373 ft | 21 kts | 307° |
| 2026-05-03 23:21 | 4.69932 | -74.13676 | 8373 ft | 25 kts | 307° |
| 2026-05-03 23:21 | 4.70040 | -74.13820 | 8373 ft | 26 kts | 307° |
| 2026-05-03 23:21 | 4.70144 | -74.13957 | 8372 ft | 24 kts | 307° |
| 2026-05-03 23:21 | 4.70242 | -74.14087 | 8372 ft | 23 kts | 307° |
| 2026-05-03 23:22 | 4.70420 | -74.14321 | 8373 ft | 20 kts | 307° |
| 2026-05-03 23:22 | 4.70497 | -74.14429 | 8374 ft | 18 kts | 290° |
| 2026-05-03 23:22 | 4.70431 | -74.14513 | 8373 ft | 16 kts | 216° |
| 2026-05-03 23:23 | 4.70344 | -74.14577 | 8370 ft | 16 kts | 217° |
| 2026-05-03 23:23 | 4.70252 | -74.14646 | 8373 ft | 17 kts | 217° |
| 2026-05-03 23:23 | 4.70154 | -74.14719 | 8371 ft | 18 kts | 217° |
| 2026-05-03 23:23 | 4.70051 | -74.14798 | 8373 ft | 19 kts | 217° |
| 2026-05-03 23:24 | 4.69938 | -74.14884 | 8373 ft | 21 kts | 218° |
| 2026-05-03 23:24 | 4.69857 | -74.14969 | 8373 ft | 16 kts | 272° |
| 2026-05-03 23:24 | 4.69921 | -74.15062 | 8372 ft | 17 kts | 308° |
| 2026-05-03 23:24 | 4.69997 | -74.15163 | 8372 ft | 19 kts | 307° |
| 2026-05-03 23:25 | 4.70082 | -74.15273 | 8372 ft | 21 kts | 307° |
| 2026-05-03 23:25 | 4.70174 | -74.15393 | 8373 ft | 23 kts | 307° |
| 2026-05-03 23:25 | 4.70272 | -74.15522 | 8374 ft | 24 kts | 306° |
| 2026-05-03 23:25 | 4.70374 | -74.15660 | 8373 ft | 25 kts | 307° |
| 2026-05-03 23:26 | 4.70481 | -74.15803 | 8373 ft | 26 kts | 307° |
| 2026-05-03 23:26 | 4.70592 | -74.15950 | 8370 ft | 27 kts | 307° |
| 2026-05-03 23:26 | 4.70706 | -74.16099 | 8371 ft | 27 kts | 307° |
| 2026-05-03 23:26 | 4.70823 | -74.16252 | 8372 ft | 28 kts | 307° |
| 2026-05-03 23:27 | 4.70939 | -74.16404 | 8373 ft | 27 kts | 307° |
| 2026-05-03 23:27 | 4.71049 | -74.16550 | 8373 ft | 26 kts | 307° |
| 2026-05-03 23:27 | 4.71148 | -74.16682 | 8373 ft | 13 kts | 307° |
| 2026-05-03 23:27 | 4.71201 | -74.16753 | 8372 ft | 12 kts | 300° |
| 2026-05-03 23:28 | 4.71176 | -74.16810 | 8373 ft | 9 kts | 221° |
| 2026-05-03 23:28 | 4.71130 | -74.16850 | 8373 ft | 9 kts | 220° |
| 2026-05-03 23:28 | 4.71080 | -74.16883 | 8373 ft | 8 kts | 200° |
| 2026-05-03 23:28 | 4.71024 | -74.16871 | 8373 ft | 9 kts | 140° |
| 2026-05-03 23:29 | 4.71001 | -74.16844 | 8373 ft | 1 kts | 128° |
| 2026-05-03 23:29 | 4.71000 | -74.16843 | 8374 ft | 3 kts | 128° |
| 2026-05-03 23:29 | 4.70855 | -74.16652 | 8373 ft | 70 kts | 127° |
| 2026-05-03 23:29 | 4.70429 | -74.16088 | 8370 ft | 131 kts | 127° |
| 2026-05-03 23:30 | 4.69780 | -74.15232 | 8374 ft | 179 kts | 127° |
| 2026-05-03 23:30 | 4.68975 | -74.14162 | 8800 ft | 192 kts | 128° |
| 2026-05-03 23:30 | 4.68036 | -74.13226 | 9509 ft | 192 kts | 160° |
| 2026-05-03 23:30 | 4.66764 | -74.13150 | 10192 ft | 186 kts | 207° |
| 2026-05-03 23:31 | 4.65815 | -74.13968 | 10683 ft | 180 kts | 241° |
| 2026-05-03 23:31 | 4.65182 | -74.15059 | 11122 ft | 181 kts | 240° |
| 2026-05-03 23:31 | 4.64497 | -74.16170 | 11329 ft | 196 kts | 239° |
| 2026-05-03 23:31 | 4.63735 | -74.17378 | 11478 ft | 214 kts | 238° |
| 2026-05-03 23:32 | 4.62905 | -74.18679 | 11605 ft | 231 kts | 237° |
| 2026-05-03 23:32 | 4.61997 | -74.20096 | 11750 ft | 250 kts | 239° |
| 2026-05-03 23:32 | 4.61371 | -74.21760 | 12038 ft | 265 kts | 259° |
| 2026-05-03 23:32 | 4.60996 | -74.23653 | 12203 ft | 288 kts | 259° |
| 2026-05-03 23:33 | 4.60601 | -74.25702 | 12350 ft | 311 kts | 259° |
| 2026-05-03 23:33 | 4.60232 | -74.27929 | 12476 ft | 336 kts | 263° |
| 2026-05-03 23:33 | 4.60008 | -74.30330 | 12603 ft | 356 kts | 266° |
| 2026-05-03 23:33 | 4.59870 | -74.32871 | 12724 ft | 374 kts | 268° |
| 2026-05-03 23:34 | 4.59769 | -74.35524 | 12965 ft | 387 kts | 268° |
| 2026-05-03 23:34 | 4.59674 | -74.38246 | 13453 ft | 393 kts | 269° |
| 2026-05-03 23:34 | 4.60016 | -74.40962 | 13951 ft | 396 kts | 289° |
| 2026-05-03 23:34 | 4.61196 | -74.43455 | 14452 ft | 399 kts | 302° |
| 2026-05-03 23:35 | 4.62798 | -74.45736 | 14953 ft | 402 kts | 310° |
| 2026-05-03 23:35 | 4.64626 | -74.47874 | 15468 ft | 406 kts | 313° |
| 2026-05-03 23:35 | 4.66516 | -74.49938 | 15949 ft | 409 kts | 313° |
| 2026-05-03 23:35 | 4.68438 | -74.52063 | 16427 ft | 413 kts | 312° |
| 2026-05-03 23:36 | 4.70325 | -74.54253 | 16888 ft | 415 kts | 311° |
| 2026-05-03 23:36 | 4.72168 | -74.56509 | 17301 ft | 420 kts | 309° |
| 2026-05-03 23:36 | 4.73976 | -74.58813 | 17767 ft | 422 kts | 309° |
| 2026-05-03 23:36 | 4.76015 | -74.60931 | 18200 ft | 424 kts | 322° |
| 2026-05-03 23:37 | 4.78380 | -74.62710 | 18532 ft | 428 kts | 325° |
| 2026-05-03 23:37 | 4.80783 | -74.64488 | 18920 ft | 431 kts | 324° |
| 2026-05-03 23:37 | 4.83213 | -74.66284 | 19314 ft | 434 kts | 324° |
| 2026-05-03 23:37 | 4.85644 | -74.68090 | 19709 ft | 437 kts | 324° |
| 2026-05-03 23:38 | 4.88064 | -74.69948 | 20070 ft | 440 kts | 323° |
| 2026-05-03 23:38 | 4.90480 | -74.71847 | 20436 ft | 442 kts | 323° |
| 2026-05-03 23:38 | 4.92774 | -74.73906 | 20782 ft | 445 kts | 314° |
| 2026-05-03 23:38 | 4.94706 | -74.76344 | 21120 ft | 449 kts | 304° |
| 2026-05-03 23:39 | 4.96242 | -74.79083 | 21451 ft | 451 kts | 296° |
| 2026-05-03 23:39 | 4.97599 | -74.81878 | 21760 ft | 454 kts | 296° |
| 2026-05-03 23:39 | 4.99012 | -74.84770 | 22076 ft | 456 kts | 296° |
| 2026-05-03 23:39 | 5.00399 | -74.87597 | 22370 ft | 458 kts | 296° |
| 2026-05-03 23:40 | 5.01808 | -74.90474 | 22673 ft | 460 kts | 296° |
| 2026-05-03 23:40 | 5.03218 | -74.93361 | 22977 ft | 462 kts | 296° |
| 2026-05-03 23:40 | 5.04628 | -74.96256 | 23268 ft | 464 kts | 296° |
| 2026-05-03 23:40 | 5.06047 | -74.99172 | 23574 ft | 465 kts | 296° |
| 2026-05-03 23:41 | 5.07468 | -75.02094 | 23848 ft | 467 kts | 296° |
| 2026-05-03 23:41 | 5.08892 | -75.05027 | 24120 ft | 469 kts | 296° |
| 2026-05-03 23:41 | 5.10321 | -75.07971 | 24382 ft | 470 kts | 296° |
| 2026-05-03 23:41 | 5.11757 | -75.10927 | 24649 ft | 472 kts | 296° |
| 2026-05-03 23:42 | 5.13194 | -75.13888 | 24920 ft | 473 kts | 296° |
| 2026-05-03 23:42 | 5.14651 | -75.16855 | 25180 ft | 475 kts | 298° |
| 2026-05-03 23:42 | 5.16428 | -75.19648 | 25431 ft | 475 kts | 308° |
| 2026-05-03 23:42 | 5.18583 | -75.22181 | 25668 ft | 476 kts | 312° |
| 2026-05-03 23:43 | 5.20786 | -75.24662 | 25920 ft | 478 kts | 312° |
| 2026-05-03 23:43 | 5.23001 | -75.27156 | 26156 ft | 480 kts | 312° |
| 2026-05-03 23:43 | 5.25218 | -75.29659 | 26401 ft | 481 kts | 312° |
| 2026-05-03 23:43 | 5.27450 | -75.32183 | 26630 ft | 482 kts | 312° |
| 2026-05-03 23:44 | 5.29682 | -75.34707 | 26846 ft | 484 kts | 312° |
| 2026-05-03 23:44 | 5.31889 | -75.37206 | 27044 ft | 485 kts | 312° |
| 2026-05-03 23:44 | 5.34135 | -75.39746 | 27248 ft | 487 kts | 312° |
| 2026-05-03 23:44 | 5.36386 | -75.42291 | 27436 ft | 488 kts | 312° |
| 2026-05-03 23:45 | 5.38647 | -75.44848 | 27655 ft | 489 kts | 312° |
| 2026-05-03 23:45 | 5.40905 | -75.47404 | 27849 ft | 491 kts | 312° |
| 2026-05-03 23:45 | 5.43174 | -75.49977 | 28044 ft | 492 kts | 312° |
| 2026-05-03 23:45 | 5.45449 | -75.52554 | 28256 ft | 493 kts | 312° |
| 2026-05-03 23:46 | 5.47725 | -75.55129 | 28541 ft | 492 kts | 312° |
| 2026-05-03 23:46 | 5.49995 | -75.57697 | 28830 ft | 492 kts | 312° |
| 2026-05-03 23:46 | 5.52267 | -75.60272 | 29107 ft | 491 kts | 312° |
| 2026-05-03 23:46 | 5.54533 | -75.62836 | 29386 ft | 491 kts | 312° |
| 2026-05-03 23:47 | 5.56804 | -75.65405 | 29659 ft | 491 kts | 312° |
| 2026-05-03 23:47 | 5.59066 | -75.67967 | 29929 ft | 490 kts | 312° |
| 2026-05-03 23:47 | 5.61326 | -75.70531 | 30212 ft | 490 kts | 312° |
| 2026-05-03 23:47 | 5.63582 | -75.73095 | 30515 ft | 489 kts | 312° |
| 2026-05-03 23:48 | 5.65830 | -75.75649 | 30831 ft | 487 kts | 312° |
| 2026-05-03 23:48 | 5.68073 | -75.78194 | 31130 ft | 486 kts | 312° |
| 2026-05-03 23:48 | 5.70297 | -75.80691 | 31436 ft | 485 kts | 315° |
| 2026-05-03 23:48 | 5.72788 | -75.82950 | 31722 ft | 482 kts | 323° |
| 2026-05-03 23:49 | 5.75439 | -75.84988 | 32005 ft | 481 kts | 323° |
| 2026-05-03 23:49 | 5.78088 | -75.87028 | 32308 ft | 480 kts | 323° |
| 2026-05-03 23:49 | 5.80733 | -75.89073 | 32606 ft | 478 kts | 323° |
| 2026-05-03 23:49 | 5.83366 | -75.91114 | 32923 ft | 477 kts | 323° |
| 2026-05-03 23:50 | 5.85987 | -75.93152 | 33232 ft | 475 kts | 323° |
| 2026-05-03 23:50 | 5.87721 | -75.94500 | 33438 ft | 474 kts | 323° |
| 2026-05-03 23:50 | 5.91202 | -75.97204 | 33845 ft | 472 kts | 323° |
| 2026-05-03 23:50 | 5.93801 | -75.99220 | 34143 ft | 470 kts | 323° |
| 2026-05-03 23:51 | 5.96390 | -76.01227 | 34444 ft | 469 kts | 323° |
| 2026-05-03 23:51 | 5.98968 | -76.03225 | 34734 ft | 468 kts | 323° |
| 2026-05-03 23:51 | 6.01544 | -76.05222 | 34984 ft | 466 kts | 323° |
| 2026-05-03 23:51 | 6.04112 | -76.07210 | 35223 ft | 466 kts | 323° |
| 2026-05-03 23:52 | 6.06675 | -76.09194 | 35462 ft | 465 kts | 323° |
| 2026-05-03 23:52 | 6.09241 | -76.11183 | 35678 ft | 464 kts | 323° |
| 2026-05-03 23:52 | 6.10935 | -76.12497 | 35820 ft | 464 kts | 323° |
| 2026-05-03 23:52 | 6.14317 | -76.15123 | 35985 ft | 465 kts | 323° |
| 2026-05-03 23:53 | 6.18613 | -76.18458 | 35997 ft | 466 kts | 323° |
| 2026-05-03 23:53 | 6.23716 | -76.22419 | 36026 ft | 466 kts | 323° |
| 2026-05-03 23:54 | 6.28855 | -76.26408 | 35948 ft | 466 kts | 323° |
| 2026-05-03 23:54 | 6.34000 | -76.30402 | 35942 ft | 466 kts | 323° |
| 2026-05-03 23:55 | 6.39146 | -76.34392 | 35946 ft | 467 kts | 323° |
| 2026-05-03 23:55 | 6.44285 | -76.38384 | 35948 ft | 467 kts | 323° |
| 2026-05-03 23:56 | 6.49392 | -76.42358 | 35949 ft | 467 kts | 323° |
| 2026-05-03 23:56 | 6.54534 | -76.46363 | 35948 ft | 467 kts | 323° |
| 2026-05-03 23:57 | 6.59679 | -76.50362 | 35945 ft | 467 kts | 323° |
| 2026-05-03 23:57 | 6.64829 | -76.54364 | 35944 ft | 468 kts | 323° |
| 2026-05-03 23:58 | 6.69976 | -76.58370 | 35946 ft | 469 kts | 323° |
| 2026-05-03 23:58 | 6.75136 | -76.62391 | 35938 ft | 468 kts | 323° |
| 2026-05-03 23:59 | 6.80282 | -76.66405 | 35855 ft | 466 kts | 323° |
| 2026-05-03 23:59 | 6.85405 | -76.70390 | 35848 ft | 465 kts | 323° |
| 2026-05-04 00:00 | 6.90532 | -76.74381 | 35853 ft | 466 kts | 323° |
| 2026-05-04 00:00 | 6.95671 | -76.78382 | 35861 ft | 467 kts | 323° |
| 2026-05-04 00:01 | 7.00805 | -76.82374 | 35867 ft | 467 kts | 323° |
| 2026-05-04 00:01 | 7.05923 | -76.86363 | 35859 ft | 468 kts | 323° |
| 2026-05-04 00:02 | 7.11099 | -76.90404 | 35880 ft | 468 kts | 322° |
| 2026-05-04 00:02 | 7.16250 | -76.94420 | 35880 ft | 468 kts | 322° |
| 2026-05-04 00:03 | 7.21362 | -76.98408 | 35879 ft | 468 kts | 322° |
| 2026-05-04 00:03 | 7.26497 | -77.02429 | 35880 ft | 468 kts | 322° |
| 2026-05-04 00:04 | 7.31647 | -77.06451 | 35881 ft | 468 kts | 323° |
| 2026-05-04 00:04 | 7.36788 | -77.10453 | 35880 ft | 468 kts | 322° |
| 2026-05-04 00:05 | 7.41947 | -77.14475 | 35886 ft | 468 kts | 322° |
| 2026-05-04 00:05 | 7.47082 | -77.18501 | 35876 ft | 467 kts | 322° |
| 2026-05-04 00:06 | 7.52223 | -77.22522 | 35882 ft | 467 kts | 322° |
| 2026-05-04 00:06 | 7.57363 | -77.26536 | 35882 ft | 467 kts | 322° |
| 2026-05-04 00:07 | 7.62504 | -77.30551 | 35885 ft | 467 kts | 322° |
| 2026-05-04 00:07 | 7.67636 | -77.34567 | 35887 ft | 467 kts | 322° |
| 2026-05-04 00:08 | 7.72768 | -77.38616 | 35888 ft | 467 kts | 319° |
| 2026-05-04 00:08 | 7.77237 | -77.43308 | 35888 ft | 467 kts | 312° |
| 2026-05-04 00:09 | 7.81610 | -77.48164 | 35889 ft | 467 kts | 312° |
| 2026-05-04 00:09 | 7.85969 | -77.53009 | 35900 ft | 467 kts | 313° |
| 2026-05-04 00:10 | 7.90341 | -77.57858 | 35912 ft | 466 kts | 313° |
| 2026-05-04 00:10 | 7.94700 | -77.62708 | 35915 ft | 466 kts | 313° |
| 2026-05-04 00:11 | 7.99059 | -77.67563 | 35922 ft | 466 kts | 313° |
| 2026-05-04 00:11 | 8.03412 | -77.72411 | 35920 ft | 466 kts | 313° |
| 2026-05-04 00:12 | 8.07763 | -77.77253 | 35918 ft | 465 kts | 313° |
| 2026-05-04 00:12 | 8.12087 | -77.82060 | 35920 ft | 464 kts | 313° |
| 2026-05-04 00:13 | 8.16433 | -77.86886 | 35915 ft | 464 kts | 313° |
| 2026-05-04 00:13 | 8.20784 | -77.91723 | 35915 ft | 465 kts | 313° |
| 2026-05-04 00:14 | 8.25125 | -77.96565 | 35919 ft | 465 kts | 313° |
| 2026-05-04 00:14 | 8.29469 | -78.01407 | 35921 ft | 465 kts | 313° |
| 2026-05-04 00:15 | 8.33809 | -78.06244 | 35922 ft | 465 kts | 313° |
| 2026-05-04 00:15 | 8.38122 | -78.11058 | 35925 ft | 465 kts | 313° |
| 2026-05-04 00:16 | 8.42726 | -78.15632 | 35926 ft | 464 kts | 321° |
| 2026-05-04 00:16 | 8.47701 | -78.19791 | 35923 ft | 464 kts | 321° |
| 2026-05-04 00:17 | 8.52680 | -78.23965 | 35923 ft | 464 kts | 321° |
| 2026-05-04 00:17 | 8.57649 | -78.28143 | 35925 ft | 465 kts | 321° |
| 2026-05-04 00:18 | 8.62619 | -78.32330 | 35930 ft | 465 kts | 321° |
| 2026-05-04 00:18 | 8.67596 | -78.36511 | 35931 ft | 465 kts | 321° |
| 2026-05-04 00:19 | 8.72579 | -78.40693 | 35931 ft | 465 kts | 321° |
| 2026-05-04 00:19 | 8.77558 | -78.44875 | 35931 ft | 465 kts | 321° |
| 2026-05-04 00:20 | 8.82534 | -78.49064 | 35934 ft | 466 kts | 321° |
| 2026-05-04 00:20 | 8.87513 | -78.53262 | 35934 ft | 466 kts | 321° |
| 2026-05-04 00:21 | 8.92487 | -78.57454 | 35931 ft | 466 kts | 321° |
| 2026-05-04 00:21 | 8.97470 | -78.61649 | 35927 ft | 465 kts | 321° |
| 2026-05-04 00:22 | 9.02414 | -78.65810 | 35924 ft | 465 kts | 321° |
| 2026-05-04 00:22 | 9.07393 | -78.70008 | 35924 ft | 466 kts | 321° |
| 2026-05-04 00:23 | 9.12372 | -78.74204 | 35925 ft | 466 kts | 321° |
| 2026-05-04 00:23 | 9.17360 | -78.78409 | 35928 ft | 466 kts | 321° |
| 2026-05-04 00:24 | 9.22345 | -78.82610 | 35929 ft | 467 kts | 320° |
| 2026-05-04 00:24 | 9.27331 | -78.86832 | 35930 ft | 467 kts | 320° |
| 2026-05-04 00:25 | 9.32317 | -78.91052 | 35934 ft | 467 kts | 320° |
| 2026-05-04 00:25 | 9.37311 | -78.95264 | 35931 ft | 467 kts | 320° |
| 2026-05-04 00:26 | 9.42311 | -78.99482 | 35931 ft | 467 kts | 320° |
| 2026-05-04 00:26 | 9.47301 | -79.03702 | 35937 ft | 467 kts | 320° |
| 2026-05-04 00:27 | 9.52279 | -79.07919 | 35930 ft | 467 kts | 320° |
| 2026-05-04 00:27 | 9.57267 | -79.12146 | 35928 ft | 467 kts | 320° |
| 2026-05-04 00:28 | 9.62225 | -79.16339 | 35933 ft | 467 kts | 320° |
| 2026-05-04 00:28 | 9.67217 | -79.20558 | 35934 ft | 467 kts | 320° |
| 2026-05-04 00:29 | 9.72205 | -79.24778 | 35930 ft | 467 kts | 320° |
| 2026-05-04 00:29 | 9.77193 | -79.29002 | 35932 ft | 467 kts | 320° |
| 2026-05-04 00:30 | 9.82171 | -79.33227 | 35931 ft | 467 kts | 320° |
| 2026-05-04 00:30 | 9.87165 | -79.37471 | 35933 ft | 467 kts | 320° |
| 2026-05-04 00:31 | 9.92147 | -79.41705 | 35933 ft | 467 kts | 320° |
| 2026-05-04 00:31 | 9.97102 | -79.45905 | 35935 ft | 467 kts | 320° |
| 2026-05-04 00:32 | 10.02090 | -79.50134 | 35935 ft | 467 kts | 320° |
| 2026-05-04 00:32 | 10.07078 | -79.54365 | 35937 ft | 467 kts | 320° |
| 2026-05-04 00:33 | 10.14552 | -79.60733 | 35924 ft | 467 kts | 320° |
| 2026-05-04 00:34 | 10.19538 | -79.64978 | 35930 ft | 467 kts | 320° |
| 2026-05-04 00:34 | 10.24519 | -79.69218 | 35935 ft | 467 kts | 320° |
| 2026-05-04 00:35 | 10.29470 | -79.73439 | 35938 ft | 467 kts | 320° |
| 2026-05-04 00:35 | 10.34447 | -79.77678 | 35941 ft | 468 kts | 320° |
| 2026-05-04 00:36 | 10.39443 | -79.81930 | 35940 ft | 467 kts | 320° |
| 2026-05-04 00:36 | 10.44428 | -79.86175 | 35941 ft | 467 kts | 320° |
| 2026-05-04 00:37 | 10.49411 | -79.90423 | 35943 ft | 467 kts | 320° |
| 2026-05-04 00:37 | 10.54388 | -79.94668 | 35941 ft | 467 kts | 320° |
| 2026-05-04 00:38 | 10.59355 | -79.98913 | 35941 ft | 467 kts | 320° |
| 2026-05-04 00:38 | 10.63481 | -80.02444 | 35941 ft | 467 kts | 320° |
| 2026-05-04 00:39 | 10.68453 | -80.06702 | 35940 ft | 467 kts | 320° |
| 2026-05-04 00:39 | 10.73424 | -80.10970 | 35942 ft | 468 kts | 320° |
| 2026-05-04 00:40 | 10.78405 | -80.15229 | 35946 ft | 467 kts | 320° |
| 2026-05-04 00:40 | 10.83334 | -80.19455 | 35679 ft | 466 kts | 319° |
| 2026-05-04 00:40 | 10.85821 | -80.21592 | 35049 ft | 468 kts | 319° |
| 2026-05-04 00:41 | 10.88310 | -80.23730 | 34324 ft | 468 kts | 319° |
| 2026-05-04 00:41 | 10.90794 | -80.25864 | 33602 ft | 468 kts | 319° |
| 2026-05-04 00:41 | 10.93288 | -80.28004 | 32873 ft | 468 kts | 319° |
| 2026-05-04 00:41 | 10.95783 | -80.30140 | 32148 ft | 470 kts | 319° |
| 2026-05-04 00:42 | 10.98294 | -80.32286 | 31432 ft | 472 kts | 320° |
| 2026-05-04 00:42 | 11.00814 | -80.34438 | 30692 ft | 475 kts | 320° |
| 2026-05-04 00:42 | 11.03348 | -80.36607 | 29964 ft | 477 kts | 320° |
| 2026-05-04 00:42 | 11.05891 | -80.38786 | 29238 ft | 479 kts | 320° |
| 2026-05-04 00:43 | 11.08450 | -80.40985 | 28503 ft | 481 kts | 319° |
| 2026-05-04 00:43 | 11.10985 | -80.43167 | 27783 ft | 484 kts | 319° |
| 2026-05-04 00:43 | 11.13558 | -80.45385 | 27059 ft | 486 kts | 319° |
| 2026-05-04 00:43 | 11.16152 | -80.47620 | 26330 ft | 488 kts | 319° |
| 2026-05-04 00:44 | 11.18750 | -80.49856 | 25600 ft | 488 kts | 319° |
| 2026-05-04 00:44 | 11.21332 | -80.52078 | 24876 ft | 484 kts | 318° |
| 2026-05-04 00:44 | 11.23897 | -80.54278 | 24147 ft | 480 kts | 318° |
| 2026-05-04 00:44 | 11.26438 | -80.56457 | 23421 ft | 475 kts | 318° |
| 2026-05-04 00:45 | 11.28956 | -80.58620 | 22695 ft | 471 kts | 318° |
| 2026-05-04 00:45 | 11.31447 | -80.60764 | 21968 ft | 467 kts | 318° |
| 2026-05-04 00:45 | 11.33893 | -80.62869 | 21250 ft | 463 kts | 319° |
| 2026-05-04 00:45 | 11.36341 | -80.64979 | 20524 ft | 459 kts | 319° |
| 2026-05-04 00:46 | 11.38776 | -80.67075 | 19795 ft | 456 kts | 319° |
| 2026-05-04 00:46 | 11.41192 | -80.69155 | 19069 ft | 453 kts | 319° |
| 2026-05-04 00:46 | 11.43593 | -80.71223 | 18338 ft | 450 kts | 319° |
| 2026-05-04 00:46 | 11.45978 | -80.73281 | 17611 ft | 447 kts | 320° |
| 2026-05-04 00:47 | 11.48342 | -80.75318 | 16886 ft | 443 kts | 320° |
| 2026-05-04 00:47 | 11.50691 | -80.77345 | 16159 ft | 440 kts | 320° |
| 2026-05-04 00:47 | 11.53021 | -80.79357 | 15432 ft | 438 kts | 320° |
| 2026-05-04 00:47 | 11.55338 | -80.81355 | 14704 ft | 435 kts | 320° |
| 2026-05-04 00:48 | 11.57641 | -80.83340 | 13972 ft | 431 kts | 320° |
| 2026-05-04 00:48 | 11.59922 | -80.85302 | 13249 ft | 428 kts | 320° |
| 2026-05-04 00:48 | 11.62185 | -80.87250 | 12522 ft | 424 kts | 320° |
| 2026-05-04 00:48 | 11.64400 | -80.89162 | 11801 ft | 420 kts | 321° |
| 2026-05-04 00:49 | 11.66619 | -80.91081 | 11076 ft | 415 kts | 320° |
| 2026-05-04 00:49 | 11.68672 | -80.93104 | 10512 ft | 402 kts | 313° |
| 2026-05-04 00:49 | 11.70388 | -80.95270 | 10113 ft | 380 kts | 307° |
| 2026-05-04 00:49 | 11.71796 | -80.97431 | 9857 ft | 352 kts | 304° |
| 2026-05-04 00:50 | 11.73094 | -80.99437 | 9604 ft | 329 kts | 305° |
| 2026-05-04 00:50 | 11.74322 | -81.01318 | 9357 ft | 309 kts | 306° |
| 2026-05-04 00:50 | 11.75500 | -81.03118 | 9108 ft | 301 kts | 306° |
| 2026-05-04 00:50 | 11.76661 | -81.04889 | 8857 ft | 299 kts | 306° |
| 2026-05-04 00:51 | 11.77819 | -81.06654 | 8611 ft | 298 kts | 306° |
| 2026-05-04 00:51 | 11.78967 | -81.08411 | 8361 ft | 296 kts | 306° |
| 2026-05-04 00:51 | 11.80107 | -81.10162 | 8105 ft | 295 kts | 306° |
| 2026-05-04 00:51 | 11.81241 | -81.11910 | 7858 ft | 294 kts | 306° |
| 2026-05-04 00:52 | 11.82367 | -81.13646 | 7607 ft | 293 kts | 306° |
| 2026-05-04 00:52 | 11.83475 | -81.15355 | 7360 ft | 292 kts | 306° |
| 2026-05-04 00:52 | 11.84595 | -81.17080 | 7110 ft | 290 kts | 306° |
| 2026-05-04 00:52 | 11.85710 | -81.18796 | 6864 ft | 289 kts | 306° |
| 2026-05-04 00:53 | 11.86819 | -81.20504 | 6608 ft | 288 kts | 306° |
| 2026-05-04 00:53 | 11.87927 | -81.22208 | 6355 ft | 287 kts | 306° |
| 2026-05-04 00:53 | 11.89028 | -81.23905 | 6094 ft | 286 kts | 306° |
| 2026-05-04 00:53 | 11.90122 | -81.25590 | 5868 ft | 285 kts | 306° |
| 2026-05-04 00:54 | 11.91215 | -81.27275 | 5607 ft | 284 kts | 306° |
| 2026-05-04 00:54 | 11.92304 | -81.28953 | 5352 ft | 283 kts | 306° |
| 2026-05-04 00:54 | 11.93388 | -81.30624 | 5104 ft | 282 kts | 306° |
| 2026-05-04 00:54 | 11.94467 | -81.32291 | 4853 ft | 281 kts | 306° |
| 2026-05-04 00:55 | 11.95542 | -81.33954 | 4596 ft | 280 kts | 306° |
| 2026-05-04 00:55 | 11.96611 | -81.35608 | 4347 ft | 279 kts | 306° |
| 2026-05-04 00:55 | 11.97678 | -81.37260 | 4104 ft | 278 kts | 306° |
| 2026-05-04 00:55 | 11.98745 | -81.38906 | 3990 ft | 277 kts | 306° |
| 2026-05-04 00:56 | 11.99796 | -81.40524 | 4003 ft | 278 kts | 306° |
| 2026-05-04 00:56 | 12.00863 | -81.42169 | 3995 ft | 277 kts | 306° |
| 2026-05-04 00:56 | 12.01931 | -81.43818 | 4006 ft | 278 kts | 306° |
| 2026-05-04 00:56 | 12.02997 | -81.45463 | 4003 ft | 278 kts | 307° |
| 2026-05-04 00:57 | 12.04068 | -81.47112 | 4006 ft | 278 kts | 306° |
| 2026-05-04 00:57 | 12.05135 | -81.48762 | 4010 ft | 278 kts | 306° |
| 2026-05-04 00:57 | 12.06203 | -81.50412 | 4000 ft | 278 kts | 306° |
| 2026-05-04 00:57 | 12.07266 | -81.52058 | 3998 ft | 278 kts | 306° |
| 2026-05-04 00:58 | 12.08332 | -81.53712 | 3999 ft | 279 kts | 306° |
| 2026-05-04 00:58 | 12.09419 | -81.55349 | 4006 ft | 277 kts | 310° |
| 2026-05-04 00:58 | 12.10688 | -81.56818 | 4011 ft | 275 kts | 319° |
| 2026-05-04 00:58 | 12.12133 | -81.58080 | 3994 ft | 273 kts | 324° |
| 2026-05-04 00:59 | 12.13620 | -81.59294 | 4002 ft | 273 kts | 324° |
| 2026-05-04 00:59 | 12.15104 | -81.60510 | 3997 ft | 274 kts | 324° |
| 2026-05-04 00:59 | 12.16585 | -81.61723 | 4011 ft | 274 kts | 324° |
| 2026-05-04 00:59 | 12.18070 | -81.62944 | 4005 ft | 273 kts | 324° |
| 2026-05-04 01:00 | 12.19549 | -81.64162 | 4009 ft | 273 kts | 324° |
| 2026-05-04 01:00 | 12.21029 | -81.65382 | 4005 ft | 273 kts | 324° |
| 2026-05-04 01:00 | 12.22512 | -81.66603 | 3999 ft | 273 kts | 324° |
| 2026-05-04 01:00 | 12.23973 | -81.67805 | 3997 ft | 273 kts | 324° |
| 2026-05-04 01:01 | 12.25454 | -81.69028 | 4009 ft | 273 kts | 324° |
| 2026-05-04 01:01 | 12.26933 | -81.70246 | 3995 ft | 273 kts | 324° |
| 2026-05-04 01:01 | 12.28412 | -81.71467 | 4005 ft | 274 kts | 324° |
| 2026-05-04 01:01 | 12.29898 | -81.72691 | 4000 ft | 274 kts | 324° |
| 2026-05-04 01:02 | 12.31379 | -81.73911 | 4011 ft | 274 kts | 324° |
| 2026-05-04 01:02 | 12.32866 | -81.75138 | 3998 ft | 274 kts | 324° |
| 2026-05-04 01:02 | 12.34346 | -81.76357 | 4007 ft | 270 kts | 324° |
| 2026-05-04 01:02 | 12.35758 | -81.77528 | 3996 ft | 252 kts | 324° |
| 2026-05-04 01:03 | 12.37077 | -81.78621 | 4002 ft | 237 kts | 324° |
| 2026-05-04 01:03 | 12.38315 | -81.79648 | 4010 ft | 222 kts | 325° |
| 2026-05-04 01:03 | 12.39483 | -81.80610 | 4024 ft | 207 kts | 326° |
| 2026-05-04 01:03 | 12.40552 | -81.81492 | 3999 ft | 188 kts | 328° |
| 2026-05-04 01:04 | 12.41597 | -81.82157 | 3934 ft | 168 kts | 335° |
| 2026-05-04 01:04 | 12.42564 | -81.82733 | 3822 ft | 155 kts | 336° |
| 2026-05-04 01:04 | 12.43487 | -81.83278 | 3693 ft | 152 kts | 336° |
| 2026-05-04 01:04 | 12.44384 | -81.83810 | 3564 ft | 150 kts | 336° |
| 2026-05-04 01:05 | 12.45286 | -81.84344 | 3450 ft | 149 kts | 336° |
| 2026-05-04 01:05 | 12.46186 | -81.84876 | 3321 ft | 149 kts | 336° |
| 2026-05-04 01:05 | 12.47082 | -81.85407 | 3198 ft | 149 kts | 336° |
| 2026-05-04 01:05 | 12.47984 | -81.85921 | 3091 ft | 147 kts | 345° |
| 2026-05-04 01:06 | 12.48957 | -81.86050 | 3030 ft | 139 kts | 13° |
| 2026-05-04 01:06 | 12.49832 | -81.85689 | 3005 ft | 138 kts | 39° |
| 2026-05-04 01:06 | 12.50451 | -81.84938 | 2932 ft | 141 kts | 60° |
| 2026-05-04 01:06 | 12.50943 | -81.84073 | 2736 ft | 140 kts | 60° |
| 2026-05-04 01:07 | 12.51436 | -81.83211 | 2536 ft | 140 kts | 59° |
| 2026-05-04 01:07 | 12.51927 | -81.82355 | 2340 ft | 139 kts | 59° |
| 2026-05-04 01:07 | 12.52416 | -81.81501 | 2146 ft | 139 kts | 60° |
| 2026-05-04 01:07 | 12.52904 | -81.80645 | 1949 ft | 138 kts | 60° |
| 2026-05-04 01:08 | 12.53392 | -81.79794 | 1748 ft | 139 kts | 60° |
| 2026-05-04 01:08 | 12.53877 | -81.78945 | 1566 ft | 138 kts | 59° |
| 2026-05-04 01:08 | 12.54361 | -81.78099 | 1382 ft | 137 kts | 59° |
| 2026-05-04 01:08 | 12.54846 | -81.77252 | 1194 ft | 139 kts | 60° |
| 2026-05-04 01:09 | 12.55328 | -81.76415 | 1014 ft | 139 kts | 60° |
| 2026-05-04 01:09 | 12.55818 | -81.75562 | 830 ft | 139 kts | 60° |
| 2026-05-04 01:09 | 12.56309 | -81.74707 | 644 ft | 139 kts | 60° |
| 2026-05-04 01:09 | 12.56796 | -81.73855 | 489 ft | 138 kts | 60° |
| 2026-05-04 01:10 | 12.57280 | -81.72996 | 375 ft | 139 kts | 59° |
| 2026-05-04 01:10 | 12.57774 | -81.72148 | 108 ft | 138 kts | 60° |
| 2026-05-04 01:10 | 12.58221 | -81.71335 | 207 ft | 134 kts | 61° |
| 2026-05-04 01:10 | 12.58691 | -81.70411 | 723 ft | 160 kts | 64° |
| 2026-05-04 01:11 | 12.59197 | -81.69285 | 1332 ft | 186 kts | 66° |
| 2026-05-04 01:11 | 12.59755 | -81.68061 | 2313 ft | 187 kts | 62° |
| 2026-05-04 01:11 | 12.60407 | -81.66868 | 2834 ft | 189 kts | 60° |
| 2026-05-04 01:11 | 12.61044 | -81.65728 | 2974 ft | 181 kts | 60° |
| 2026-05-04 01:12 | 12.61668 | -81.64621 | 3000 ft | 180 kts | 60° |
| 2026-05-04 01:12 | 12.62336 | -81.63438 | 3021 ft | 206 kts | 60° |
| 2026-05-04 01:12 | 12.63078 | -81.62117 | 3004 ft | 223 kts | 60° |
| 2026-05-04 01:12 | 12.63861 | -81.60720 | 3011 ft | 228 kts | 60° |
| 2026-05-04 01:13 | 12.64653 | -81.59309 | 3012 ft | 229 kts | 60° |
| 2026-05-04 01:13 | 12.65448 | -81.57898 | 3015 ft | 229 kts | 60° |
| 2026-05-04 01:13 | 12.66245 | -81.56485 | 3014 ft | 229 kts | 60° |
| 2026-05-04 01:13 | 12.67039 | -81.55068 | 3015 ft | 229 kts | 60° |
| 2026-05-04 01:14 | 12.67832 | -81.53651 | 3010 ft | 229 kts | 60° |
| 2026-05-04 01:14 | 12.68630 | -81.52233 | 3015 ft | 230 kts | 60° |
| 2026-05-04 01:14 | 12.69431 | -81.50817 | 3011 ft | 229 kts | 59° |
| 2026-05-04 01:14 | 12.70232 | -81.49406 | 3015 ft | 229 kts | 60° |
| 2026-05-04 01:15 | 12.71032 | -81.47992 | 3011 ft | 230 kts | 59° |
| 2026-05-04 01:15 | 12.71634 | -81.46490 | 3009 ft | 230 kts | 83° |
| 2026-05-04 01:15 | 12.71284 | -81.44906 | 3014 ft | 236 kts | 118° |
| 2026-05-04 01:15 | 12.70357 | -81.43506 | 3014 ft | 238 kts | 122° |
| 2026-05-04 01:16 | 12.69429 | -81.42109 | 3001 ft | 235 kts | 111° |
| 2026-05-04 01:16 | 12.69176 | -81.40507 | 3016 ft | 229 kts | 77° |
| 2026-05-04 01:16 | 12.69922 | -81.39101 | 3013 ft | 229 kts | 45° |
| 2026-05-04 01:16 | 12.71266 | -81.38220 | 3020 ft | 233 kts | 22° |
| 2026-05-04 01:17 | 12.72866 | -81.37913 | 3011 ft | 238 kts | 1° |
| 2026-05-04 01:17 | 12.74480 | -81.38345 | 3010 ft | 245 kts | 332° |
| 2026-05-04 01:17 | 12.75618 | -81.39647 | 3014 ft | 255 kts | 294° |
| 2026-05-04 01:17 | 12.75775 | -81.41451 | 3011 ft | 260 kts | 257° |
| 2026-05-04 01:18 | 12.75098 | -81.43172 | 3013 ft | 263 kts | 240° |
| 2026-05-04 01:18 | 12.74116 | -81.44752 | 3013 ft | 263 kts | 234° |
| 2026-05-04 01:18 | 12.73067 | -81.46252 | 3011 ft | 263 kts | 233° |
| 2026-05-04 01:18 | 12.71980 | -81.47762 | 3014 ft | 262 kts | 229° |
| 2026-05-04 01:19 | 12.70785 | -81.49134 | 3007 ft | 251 kts | 226° |
| 2026-05-04 01:19 | 12.69544 | -81.50489 | 3014 ft | 274 kts | 225° |
| 2026-05-04 01:19 | 12.68205 | -81.51925 | 3026 ft | 281 kts | 225° |
| 2026-05-04 01:19 | 12.66848 | -81.53383 | 3266 ft | 284 kts | 225° |
| 2026-05-04 01:20 | 12.65487 | -81.54840 | 3521 ft | 285 kts | 225° |
| 2026-05-04 01:20 | 12.64116 | -81.56312 | 3771 ft | 286 kts | 225° |
| 2026-05-04 01:20 | 12.62745 | -81.57792 | 3953 ft | 287 kts | 226° |
| 2026-05-04 01:20 | 12.61372 | -81.59283 | 3996 ft | 288 kts | 226° |
| 2026-05-04 01:21 | 12.60003 | -81.60770 | 4011 ft | 287 kts | 226° |
| 2026-05-04 01:21 | 12.58626 | -81.62261 | 3881 ft | 287 kts | 225° |
| 2026-05-04 01:21 | 12.57270 | -81.63724 | 3978 ft | 286 kts | 225° |
| 2026-05-04 01:21 | 12.55898 | -81.65202 | 4001 ft | 287 kts | 225° |
| 2026-05-04 01:22 | 12.54524 | -81.66685 | 4009 ft | 286 kts | 225° |
| 2026-05-04 01:22 | 12.53153 | -81.68166 | 4013 ft | 287 kts | 226° |
| 2026-05-04 01:22 | 12.51779 | -81.69652 | 4005 ft | 287 kts | 225° |
| 2026-05-04 01:22 | 12.50405 | -81.71138 | 3999 ft | 287 kts | 226° |
| 2026-05-04 01:23 | 12.49032 | -81.72620 | 4000 ft | 287 kts | 226° |
| 2026-05-04 01:23 | 12.47662 | -81.74101 | 4000 ft | 287 kts | 226° |
| 2026-05-04 01:23 | 12.46305 | -81.75569 | 3999 ft | 287 kts | 226° |
| 2026-05-04 01:23 | 12.44928 | -81.77054 | 3997 ft | 288 kts | 226° |
| 2026-05-04 01:24 | 12.43691 | -81.78598 | 4002 ft | 271 kts | 242° |
| 2026-05-04 01:24 | 12.43180 | -81.80367 | 4009 ft | 252 kts | 269° |
| 2026-05-04 01:24 | 12.43403 | -81.82108 | 3658 ft | 248 kts | 295° |
| 2026-05-04 01:24 | 12.44309 | -81.83577 | 3284 ft | 243 kts | 319° |
| 2026-05-04 01:25 | 12.45669 | -81.84559 | 3008 ft | 235 kts | 335° |
| 2026-05-04 01:25 | 12.46594 | -81.85096 | 2993 ft | 226 kts | 336° |
| 2026-05-04 01:25 | 12.48014 | -81.85554 | 2992 ft | 205 kts | 0° |
| 2026-05-04 01:25 | 12.49335 | -81.85372 | 3008 ft | 181 kts | 23° |
| 2026-05-04 01:26 | 12.50628 | -81.84483 | 2702 ft | 158 kts | 50° |
| 2026-05-04 01:26 | 12.51202 | -81.83595 | 2493 ft | 146 kts | 60° |
| 2026-05-04 01:26 | 12.51707 | -81.82711 | 2312 ft | 142 kts | 60° |
| 2026-05-04 01:26 | 12.52042 | -81.82128 | 2192 ft | 140 kts | 60° |
| 2026-05-04 01:27 | 12.52537 | -81.81267 | 2016 ft | 139 kts | 60° |
| 2026-05-04 01:27 | 12.53027 | -81.80417 | 1850 ft | 138 kts | 60° |
| 2026-05-04 01:27 | 12.53510 | -81.79580 | 1682 ft | 137 kts | 60° |
| 2026-05-04 01:27 | 12.53996 | -81.78738 | 1503 ft | 137 kts | 60° |
| 2026-05-04 01:28 | 12.54482 | -81.77895 | 1320 ft | 138 kts | 60° |
| 2026-05-04 01:28 | 12.54970 | -81.77047 | 1139 ft | 139 kts | 60° |
| 2026-05-04 01:28 | 12.55460 | -81.76195 | 952 ft | 139 kts | 60° |
| 2026-05-04 01:28 | 12.55952 | -81.75345 | 772 ft | 139 kts | 60° |
| 2026-05-04 01:29 | 12.56443 | -81.74494 | 590 ft | 139 kts | 60° |
| 2026-05-04 01:29 | 12.56934 | -81.73641 | 406 ft | 139 kts | 59° |
| 2026-05-04 01:29 | 12.57419 | -81.72794 | 297 ft | 137 kts | 60° |
| 2026-05-04 01:29 | 12.57893 | -81.71932 | 114 ft | 139 kts | 61° |
| 2026-05-04 01:30 | 12.58352 | -81.71136 | 53 ft | 111 kts | 59° |
| 2026-05-04 01:30 | 12.58661 | -81.70599 | 40 ft | 65 kts | 59° |
| 2026-05-04 01:30 | 12.58808 | -81.70347 | 30 ft | 30 kts | 61° |
| 2026-05-04 01:30 | 12.58846 | -81.70277 | 26 ft | 8 kts | 60° |
| 2026-05-04 01:31 | 12.58845 | -81.70227 | 26 ft | 6 kts | 152° |
| 2026-05-04 01:31 | 12.58812 | -81.70216 | 26 ft | 3 kts | 161° |
| 2026-05-04 01:31 | 12.58801 | -81.70212 | 28 ft | 0 kts | 161° |
| 2026-05-04 01:32 | 12.58790 | -81.70211 | 26 ft | 3 kts | 184° |
| 2026-05-04 01:32 | 12.58784 | -81.70214 | 27 ft | 0 kts | 202° |
| 2026-05-04 01:32 | 12.58781 | -81.70216 | 27 ft | 1 kts | 209° |
| 2026-05-04 01:32 | 12.58776 | -81.70223 | 27 ft | 2 kts | 232° |
| 2026-05-04 01:33 | 12.58770 | -81.70231 | 28 ft | 0 kts | 233° |
| 2026-05-04 01:33 | 12.58766 | -81.70236 | 28 ft | 1 kts | 233° |
| 2026-05-04 01:33 | 12.58759 | -81.70245 | 29 ft | 2 kts | 233° |
| 2026-05-04 01:33 | 12.58751 | -81.70258 | 29 ft | 2 kts | 239° |
| 2026-05-04 01:34 | 12.58743 | -81.70272 | 30 ft | 2 kts | 240° |
| 2026-05-04 01:34 | 12.58732 | -81.70293 | 31 ft | 3 kts | 240° |
| 2026-05-04 01:34 | 12.58718 | -81.70296 | 32 ft | 2 kts | 168° |
| 2026-05-04 01:34 | 12.58689 | -81.70279 | 32 ft | 5 kts | 149° |
| 2026-05-04 01:35 | 12.58667 | -81.70266 | 32 ft | 0 kts | 149° |
| 2026-05-04 01:35 | 12.58666 | -81.70266 | 32 ft | 0 kts | 149° |